Time;durP1;ratioP1;P1;durP2;ratioP2;P2;SDS_P1;SDS_P2;PMS_P1;PMS_P2;Temp;Humidity;BMP_temperature;BMP_pressure;BME280_temperature;BME280_humidity;BME280_pressure;Samples;Min_cycle;Max_cycle;Signal;HPM_P1;HPM_P2
2023/09/20 00:00:53;;;;;;;3.73;1.63;;;16.40;72.70;;;;;;5222832;28;20477;-48
2023/09/20 00:03:26;;;;;;;3.53;1.70;;;16.30;72.90;;;;;;5219664;28;20533;-48
2023/09/20 00:05:59;;;;;;;8.20;1.77;;;16.30;72.90;;;;;;5213791;28;20503;-48
2023/09/20 00:08:30;;;;;;;3.83;1.90;;;16.30;73.20;;;;;;5222308;28;20465;-49
2023/09/20 00:11:01;;;;;;;2.37;2.17;;;16.30;73.20;;;;;;5204614;28;20535;-49
2023/09/20 00:13:33;;;;;;;7.30;1.87;;;16.20;73.30;;;;;;5225509;28;20700;-49
2023/09/20 00:16:04;;;;;;;9.20;2.57;;;16.20;73.30;;;;;;5223343;28;20454;-49
2023/09/20 00:18:35;;;;;;;3.17;1.97;;;16.20;73.60;;;;;;5215727;28;20464;-48
2023/09/20 00:21:06;;;;;;;7.30;2.43;;;16.20;73.80;;;;;;5221705;28;20260;-48
2023/09/20 00:23:37;;;;;;;1.80;1.70;;;16.20;74.50;;;;;;5224650;28;20922;-48
2023/09/20 00:26:08;;;;;;;6.50;2.00;;;16.10;74.00;;;;;;5213489;28;20568;-48
2023/09/20 00:28:40;;;;;;;4.60;2.10;;;16.40;73.70;;;;;;5221635;28;20229;-48
2023/09/20 00:31:11;;;;;;;2.87;2.60;;;16.20;73.70;;;;;;5212664;28;20933;-48
2023/09/20 00:33:43;;;;;;;2.40;1.90;;;16.20;74.00;;;;;;5225809;28;20441;-48
2023/09/20 00:36:20;;;;;;;1.70;1.60;;;16.20;74.20;;;;;;5215319;28;20210;-48
2023/09/20 00:38:51;;;;;;;2.80;1.90;;;16.20;74.60;;;;;;5216119;28;21206;-49
2023/09/20 00:41:22;;;;;;;6.93;1.70;;;16.10;74.60;;;;;;5223589;28;20465;-48
2023/09/20 00:43:53;;;;;;;2.43;1.70;;;16.10;74.80;;;;;;5215248;28;20444;-49
2023/09/20 00:46:25;;;;;;;7.63;2.37;;;16.10;75.10;;;;;;5216571;28;20230;-49
2023/09/20 00:48:56;;;;;;;2.13;1.50;;;16.00;75.30;;;;;;5223490;28;20433;-48
2023/09/20 00:51:27;;;;;;;6.10;2.00;;;16.00;75.40;;;;;;5211930;28;20448;-50
2023/09/20 00:54:03;;;;;;;4.27;1.97;;;16.00;75.80;;;;;;5223986;28;20434;-50
2023/09/20 00:56:34;;;;;;;3.83;2.13;;;16.00;76.00;;;;;;5229628;28;20483;-49
2023/09/20 00:59:07;;;;;;;4.20;1.87;;;16.00;76.30;;;;;;5224527;28;20417;-49
2023/09/20 01:01:40;;;;;;;8.80;2.30;;;16.00;76.50;;;;;;5220348;28;21059;-49
2023/09/20 01:04:12;;;;;;;9.43;2.37;;;16.00;76.50;;;;;;5218912;28;20434;-49
2023/09/20 01:06:44;;;;;;;2.77;1.93;;;15.90;76.60;;;;;;5229044;28;20449;-49
2023/09/20 01:09:15;;;;;;;4.53;1.93;;;16.10;77.00;;;;;;5217435;28;20502;-50
2023/09/20 01:11:46;;;;;;;2.40;1.90;;;16.10;76.60;;;;;;5224763;28;20548;-51
2023/09/20 01:14:18;;;;;;;2.50;1.67;;;16.10;76.70;;;;;;5230265;28;20282;-49
2023/09/20 01:16:53;;;;;;;1.80;1.70;;;16.20;76.90;;;;;;5219955;28;20199;-50
2023/09/20 01:19:24;;;;;;;1.30;1.20;;;16.00;77.20;;;;;;5229391;28;20440;-49
2023/09/20 01:21:55;;;;;;;7.40;2.20;;;16.00;77.60;;;;;;5223924;28;20825;-48
2023/09/20 01:24:29;;;;;;;4.33;1.83;;;16.00;77.30;;;;;;5225991;28;20171;-49
2023/09/20 01:27:04;;;;;;;1.93;1.70;;;16.00;77.70;;;;;;5226029;28;20461;-49
2023/09/20 01:29:35;;;;;;;4.53;2.40;;;16.10;77.90;;;;;;5211913;28;20758;-48
2023/09/20 01:32:06;;;;;;;1.60;1.53;;;16.10;77.70;;;;;;5225785;28;20508;-49
2023/09/20 01:34:37;;;;;;;2.03;1.53;;;16.00;78.10;;;;;;5222497;28;20871;-47
2023/09/20 01:37:08;;;;;;;8.10;2.13;;;15.90;78.50;;;;;;5220936;28;20203;-48
2023/09/20 01:39:39;;;;;;;5.10;2.00;;;15.80;79.00;;;;;;5219743;28;20183;-49
2023/09/20 01:42:09;;;;;;;6.63;1.77;;;15.80;79.50;;;;;;5211151;28;20580;-49
2023/09/20 01:44:41;;;;;;;2.40;1.80;;;15.80;79.80;;;;;;5224059;28;20515;-47
2023/09/20 01:47:12;;;;;;;13.83;1.93;;;15.80;80.10;;;;;;5222891;28;20373;-48
2023/09/20 01:49:44;;;;;;;3.97;2.10;;;15.80;80.20;;;;;;5216196;28;20945;-48
2023/09/20 01:52:14;;;;;;;5.93;2.00;;;15.80;80.60;;;;;;5218708;28;20433;-48
2023/09/20 01:54:46;;;;;;;3.03;1.63;;;15.90;80.80;;;;;;5210825;28;20429;-49
2023/09/20 01:57:17;;;;;;;2.30;1.83;;;16.00;80.60;;;;;;5222066;28;20189;-49
2023/09/20 01:59:47;;;;;;;1.80;1.70;;;16.00;80.30;;;;;;5246105;28;20425;-49
2023/09/20 02:02:18;;;;;;;2.83;1.70;;;16.00;81.00;;;;;;5220594;28;20211;-48
2023/09/20 02:04:49;;;;;;;2.83;1.80;;;15.90;81.30;;;;;;5219687;28;20182;-48
2023/09/20 02:07:22;;;;;;;10.00;2.10;;;16.10;81.10;;;;;;5221872;28;20229;-49
2023/09/20 02:09:53;;;;;;;2.93;2.00;;;16.00;81.20;;;;;;5219793;28;20203;-48
2023/09/20 02:12:24;;;;;;;1.87;1.33;;;15.90;81.80;;;;;;5213425;28;20442;-48
2023/09/20 02:14:55;;;;;;;6.43;2.70;;;15.80;82.40;;;;;;5229526;28;20218;-48
2023/09/20 02:17:26;;;;;;;2.53;1.50;;;15.80;82.90;;;;;;5228330;28;20604;-48
2023/09/20 02:19:57;;;;;;;4.73;1.80;;;15.70;83.20;;;;;;5218542;28;20444;-48
2023/09/20 02:22:29;;;;;;;9.23;1.53;;;15.80;83.80;;;;;;5218706;28;20648;-50
2023/09/20 02:24:59;;;;;;;8.43;2.50;;;15.90;83.80;;;;;;5207838;28;20186;-49
2023/09/20 02:27:30;;;;;;;5.60;2.13;;;15.90;84.00;;;;;;5227444;28;20503;-50
2023/09/20 02:30:01;;;;;;;2.77;1.50;;;16.00;84.00;;;;;;5222634;28;20210;-50
2023/09/20 02:32:32;;;;;;;8.13;2.40;;;16.10;84.20;;;;;;5210702;28;20184;-49
2023/09/20 02:35:04;;;;;;;3.60;1.83;;;16.20;83.70;;;;;;5215249;28;20202;-49
2023/09/20 02:37:36;;;;;;;3.90;2.27;;;16.20;83.90;;;;;;5211552;28;20188;-49
2023/09/20 02:40:07;;;;;;;9.00;2.17;;;16.20;83.70;;;;;;5221838;28;20437;-49
2023/09/20 02:42:44;;;;;;;3.17;1.77;;;16.20;83.70;;;;;;5224511;28;20441;-48
2023/09/20 02:45:22;;;;;;;2.00;1.57;;;16.20;84.10;;;;;;5212363;28;20464;-49
2023/09/20 02:47:54;;;;;;;2.60;1.23;;;16.30;84.30;;;;;;5226832;28;20475;-48
2023/09/20 02:50:25;;;;;;;4.00;1.70;;;16.20;84.20;;;;;;5213433;28;20508;-49
2023/09/20 02:52:56;;;;;;;7.70;2.30;;;16.30;84.50;;;;;;5222144;28;20484;-49
2023/09/20 02:55:31;;;;;;;12.00;1.97;;;16.40;83.90;;;;;;5211309;28;20474;-49
2023/09/20 02:58:01;;;;;;;2.00;1.77;;;16.50;84.00;;;;;;5219400;28;20666;-49
2023/09/20 03:00:32;;;;;;;4.07;1.50;;;16.40;84.20;;;;;;5221112;28;20461;-48
2023/09/20 03:03:04;;;;;;;7.77;2.23;;;16.30;84.70;;;;;;5225799;28;20540;-47
2023/09/20 03:05:36;;;;;;;3.70;1.53;;;16.30;85.10;;;;;;5223872;28;20272;-49
2023/09/20 03:08:11;;;;;;;4.80;2.10;;;16.40;85.10;;;;;;5224347;28;20433;-49
2023/09/20 03:10:42;;;;;;;3.27;1.40;;;16.40;84.90;;;;;;5227112;28;20483;-48
2023/09/20 03:13:18;;;;;;;1.87;1.77;;;16.50;84.70;;;;;;5218319;28;20958;-48
2023/09/20 03:15:54;;;;;;;3.23;1.80;;;16.30;85.70;;;;;;5217639;28;20221;-48
2023/09/20 03:18:25;;;;;;;7.47;2.00;;;16.40;85.50;;;;;;5223421;28;20446;-49
2023/09/20 03:21:05;;;;;;;5.27;1.73;;;16.40;85.70;;;;;;5222437;28;21033;-48
2023/09/20 03:23:37;;;;;;;3.17;1.87;;;16.50;85.60;;;;;;5219904;28;20682;-48
2023/09/20 03:26:09;;;;;;;2.93;2.00;;;16.30;86.40;;;;;;5211415;28;20548;-48
2023/09/20 03:28:41;;;;;;;2.10;1.60;;;16.10;87.40;;;;;;5216359;28;20441;-48
2023/09/20 03:31:12;;;;;;;5.20;1.63;;;16.10;87.90;;;;;;5215331;28;20442;-48
2023/09/20 03:33:42;;;;;;;5.70;1.87;;;16.30;87.70;;;;;;5219220;28;20545;-48
2023/09/20 03:36:15;;;;;;;4.27;1.90;;;16.20;88.30;;;;;;5220761;28;20238;-47
2023/09/20 03:38:46;;;;;;;3.53;1.80;;;16.20;88.70;;;;;;5221893;28;20228;-48
2023/09/20 03:41:17;;;;;;;10.13;1.30;;;16.10;89.60;;;;;;5210407;28;20978;-48
2023/09/20 03:43:47;;;;;;;2.97;2.10;;;16.10;90.00;;;;;;5218394;28;20221;-49
2023/09/20 03:46:18;;;;;;;2.07;1.87;;;16.10;90.30;;;;;;5216076;28;20212;-49
2023/09/20 03:48:49;;;;;;;4.20;2.00;;;16.00;90.40;;;;;;5222266;28;20198;-48
2023/09/20 03:51:20;;;;;;;2.60;1.50;;;16.00;90.80;;;;;;5221712;28;20271;-48
2023/09/20 03:53:50;;;;;;;4.57;1.93;;;16.00;90.90;;;;;;5214097;28;20187;-48
2023/09/20 03:56:21;;;;;;;4.43;1.80;;;16.10;90.90;;;;;;5225428;28;20695;-48
2023/09/20 03:58:52;;;;;;;6.37;1.60;;;16.20;91.10;;;;;;5222401;28;20186;-49
2023/09/20 04:01:23;;;;;;;8.80;1.50;;;16.10;91.30;;;;;;5226363;28;20206;-50
2023/09/20 04:03:53;;;;;;;3.30;1.80;;;16.00;91.70;;;;;;5225731;28;20643;-48
2023/09/20 04:06:25;;;;;;;3.97;2.00;;;16.00;91.90;;;;;;5213963;28;20208;-49
2023/09/20 04:08:56;;;;;;;3.37;1.90;;;16.00;92.30;;;;;;5226779;28;20708;-48
2023/09/20 04:11:27;;;;;;;6.60;1.80;;;15.90;92.40;;;;;;5220442;28;20437;-48
2023/09/20 04:13:58;;;;;;;1.73;1.63;;;15.90;93.00;;;;;;5212916;28;20194;-50
2023/09/20 04:16:28;;;;;;;4.30;2.13;;;16.00;93.00;;;;;;5216464;28;20199;-49
2023/09/20 04:18:59;;;;;;;1.70;1.57;;;15.80;93.60;;;;;;5221408;28;20283;-51
2023/09/20 04:21:30;;;;;;;3.67;1.57;;;15.80;94.30;;;;;;5218780;28;20195;-49
2023/09/20 04:24:02;;;;;;;7.30;2.37;;;15.70;94.50;;;;;;5230250;28;20687;-48
2023/09/20 04:26:33;;;;;;;3.23;1.87;;;15.80;95.10;;;;;;5216186;28;20723;-48
2023/09/20 04:29:04;;;;;;;3.53;1.40;;;15.70;95.20;;;;;;5228859;28;20439;-49
2023/09/20 04:31:35;;;;;;;3.70;2.20;;;15.60;95.90;;;;;;5217844;28;20274;-49
2023/09/20 04:34:06;;;;;;;4.33;1.80;;;15.80;96.30;;;;;;5214254;28;20183;-49
2023/09/20 04:36:36;;;;;;;3.77;1.73;;;15.60;96.70;;;;;;5224631;28;20808;-48
2023/09/20 04:39:07;;;;;;;1.47;1.43;;;15.50;97.40;;;;;;5229545;28;20301;-49
2023/09/20 04:41:39;;;;;;;2.30;1.97;;;15.50;98.10;;;;;;5219416;28;20270;-48
2023/09/20 04:44:09;;;;;;;1.57;1.47;;;15.60;98.60;;;;;;5226643;28;20201;-49
2023/09/20 04:46:40;;;;;;;3.57;1.80;;;15.70;98.30;;;;;;5221314;28;20461;-49
2023/09/20 04:49:11;;;;;;;2.23;1.30;;;15.60;98.50;;;;;;5226066;28;20837;-48
2023/09/20 04:51:42;;;;;;;4.67;2.07;;;15.60;99.10;;;;;;5218939;28;20442;-50
2023/09/20 04:54:13;;;;;;;2.10;1.80;;;15.70;99.30;;;;;;5223401;28;20240;-48
2023/09/20 04:56:47;;;;;;;2.20;1.43;;;15.70;99.70;;;;;;5219017;28;20253;-47
2023/09/20 04:59:19;;;;;;;4.93;1.67;;;15.60;99.90;;;;;;5225452;28;20183;-47
2023/09/20 05:01:49;;;;;;;2.43;1.77;;;15.60;99.90;;;;;;5227704;28;20460;-47
2023/09/20 05:04:20;;;;;;;5.80;1.87;;;15.70;99.90;;;;;;5225219;28;20441;-47
2023/09/20 05:06:53;;;;;;;2.00;1.80;;;15.70;99.90;;;;;;5218763;28;20230;-47
2023/09/20 05:09:23;;;;;;;2.00;1.77;;;15.70;99.90;;;;;;5221209;28;20182;-46
2023/09/20 05:11:54;;;;;;;2.70;1.77;;;15.70;99.90;;;;;;5231613;28;20437;-48
2023/09/20 05:14:25;;;;;;;10.40;1.80;;;15.90;99.90;;;;;;5219213;28;20194;-46
2023/09/20 05:16:56;;;;;;;2.80;1.77;;;15.90;99.90;;;;;;5230356;28;20302;-48
2023/09/20 05:19:27;;;;;;;3.67;1.90;;;15.80;99.90;;;;;;5224420;28;20524;-46
2023/09/20 05:21:57;;;;;;;3.90;2.10;;;15.90;99.90;;;;;;5225344;28;20215;-46
2023/09/20 05:24:30;;;;;;;6.17;2.30;;;16.00;99.90;;;;;;5224722;28;20190;-46
2023/09/20 05:27:01;;;;;;;3.17;1.77;;;16.10;99.90;;;;;;5227690;28;20650;-47
2023/09/20 05:29:32;;;;;;;14.17;2.20;;;16.10;99.90;;;;;;5217450;28;20521;-46
2023/09/20 05:32:03;;;;;;;5.10;2.00;;;16.10;99.90;;;;;;5226504;28;20179;-47
2023/09/20 05:34:34;;;;;;;1.50;1.40;;;16.30;99.90;;;;;;5224441;28;20449;-46
2023/09/20 05:37:06;;;;;;;1.83;1.73;;;16.20;99.90;;;;;;5226847;28;20468;-47
2023/09/20 05:39:36;;;;;;;4.13;1.63;;;16.20;99.90;;;;;;5226678;28;21135;-47
2023/09/20 05:42:08;;;;;;;3.83;1.80;;;16.30;99.90;;;;;;5225300;28;20461;-47
2023/09/20 05:44:39;;;;;;;4.30;2.10;;;16.50;99.90;;;;;;5222726;28;20749;-46
2023/09/20 05:47:09;;;;;;;2.63;1.87;;;16.60;99.90;;;;;;5227682;28;20464;-46
2023/09/20 05:49:40;;;;;;;1.73;1.60;;;16.60;99.90;;;;;;5230211;28;20274;-47
2023/09/20 05:52:11;;;;;;;4.87;2.50;;;16.70;99.90;;;;;;5225491;28;20195;-45
2023/09/20 05:54:43;;;;;;;5.20;1.83;;;16.80;99.90;;;;;;5220437;28;20559;-47
2023/09/20 05:57:13;;;;;;;10.03;1.73;;;16.80;99.90;;;;;;5232497;28;20241;-45
2023/09/20 05:59:44;;;;;;;1.73;1.63;;;17.10;99.40;;;;;;5225753;28;20473;-47
2023/09/20 06:02:15;;;;;;;4.43;2.10;;;17.30;99.30;;;;;;5230062;28;20479;-47
2023/09/20 06:04:46;;;;;;;4.13;2.30;;;17.60;98.60;;;;;;5224634;28;20183;-48
2023/09/20 06:07:17;;;;;;;2.07;1.57;;;17.90;98.30;;;;;;5211915;28;20206;-45
2023/09/20 06:09:47;;;;;;;3.20;2.27;;;18.20;96.80;;;;;;5213950;28;20211;-47
2023/09/20 06:12:18;;;;;;;2.70;1.77;;;18.60;96.50;;;;;;5223801;28;20191;-46
2023/09/20 06:14:49;;;;;;;10.23;1.73;;;19.10;95.40;;;;;;5227340;28;20216;-45
2023/09/20 06:17:20;;;;;;;3.90;1.80;;;19.80;94.40;;;;;;5229661;28;20189;-47
2023/09/20 06:19:51;;;;;;;2.33;1.70;;;20.30;93.30;;;;;;5227075;28;20206;-46
2023/09/20 06:22:21;;;;;;;2.73;2.10;;;20.90;92.20;;;;;;5224077;28;20215;-48
2023/09/20 06:24:53;;;;;;;1.83;1.67;;;23.40;84.20;;;;;;5222837;28;20441;-51
2023/09/20 06:27:24;;;;;;;4.10;1.83;;;25.20;72.50;;;;;;5221390;28;20402;-50
2023/09/20 06:29:55;;;;;;;1.80;1.70;;;26.30;65.00;;;;;;5230554;28;20191;-46
2023/09/20 06:32:28;;;;;;;1.50;1.40;;;26.60;59.60;;;;;;5229789;28;20437;-46
2023/09/20 06:35:01;;;;;;;2.43;1.67;;;26.70;59.10;;;;;;5224575;28;20204;-46
2023/09/20 06:37:33;;;;;;;3.03;1.30;;;27.50;57.40;;;;;;5214785;28;20474;-48
2023/09/20 06:40:16;;;;;;;2.97;2.10;;;28.80;53.90;;;;;;5222532;28;21004;-46
2023/09/20 06:42:47;;;;;;;3.03;1.77;;;29.90;49.90;;;;;;5228397;28;21035;-46
2023/09/20 06:45:22;;;;;;;6.60;1.97;;;30.00;48.50;;;;;;5229341;28;20546;-47
2023/09/20 06:47:55;;;;;;;1.70;1.60;;;30.60;47.30;;;;;;5224038;28;20202;-46
2023/09/20 06:50:26;;;;;;;1.40;1.40;;;30.70;45.60;;;;;;5203891;28;20487;-46
2023/09/20 06:52:58;;;;;;;1.63;1.30;;;30.50;45.80;;;;;;5229323;28;20425;-46
2023/09/20 06:55:35;;;;;;;5.33;2.27;;;30.70;44.90;;;;;;5220236;28;20497;-46
2023/09/20 06:58:07;;;;;;;2.13;1.73;;;31.10;44.20;;;;;;5225617;28;20986;-46
2023/09/20 07:00:38;;;;;;;3.90;2.17;;;31.30;43.40;;;;;;5225945;28;20469;-47
2023/09/20 07:03:10;;;;;;;7.57;1.80;;;31.80;42.30;;;;;;5217613;28;20448;-45
2023/09/20 07:05:41;;;;;;;4.63;1.60;;;31.20;43.00;;;;;;5228126;28;20194;-46
2023/09/20 07:08:12;;;;;;;10.17;2.57;;;31.40;42.70;;;;;;5226233;28;20909;-49
2023/09/20 07:10:45;;;;;;;12.63;3.80;;;31.70;42.40;;;;;;5223501;28;20198;-48
2023/09/20 07:13:18;;;;;;;3.50;1.37;;;32.00;41.80;;;;;;5222100;28;20434;-47
2023/09/20 07:15:51;;;;;;;1.50;1.17;;;31.50;42.30;;;;;;5218406;28;20473;-49
2023/09/20 07:18:22;;;;;;;2.30;1.53;;;30.70;43.40;;;;;;5226178;28;20457;-48
2023/09/20 07:20:54;;;;;;;2.20;2.00;;;30.80;43.90;;;;;;5218010;28;20839;-49
2023/09/20 07:23:25;;;;;;;4.53;2.27;;;30.90;42.90;;;;;;5223158;28;20461;-48
2023/09/20 07:25:56;;;;;;;3.43;1.37;;;30.20;43.60;;;;;;5226098;28;20887;-50
2023/09/20 07:28:27;;;;;;;7.70;1.50;;;29.80;44.90;;;;;;5221756;28;20179;-48
2023/09/20 07:30:58;;;;;;;2.27;1.93;;;29.80;45.20;;;;;;5222623;28;20942;-46
2023/09/20 07:33:31;;;;;;;2.03;1.67;;;29.60;45.50;;;;;;5225920;28;20186;-46
2023/09/20 07:36:02;;;;;;;20.67;2.07;;;29.60;45.40;;;;;;5216095;28;20270;-48
2023/09/20 07:38:36;;;;;;;1.67;1.40;;;29.70;45.50;;;;;;5224006;28;20533;-46
2023/09/20 07:41:08;;;;;;;4.20;1.80;;;29.60;45.40;;;;;;5227990;28;20287;-46
2023/09/20 07:43:42;;;;;;;3.57;1.80;;;30.00;45.50;;;;;;5223131;28;20426;-46
2023/09/20 07:46:13;;;;;;;2.00;1.60;;;30.40;44.20;;;;;;5223385;28;21008;-47
2023/09/20 07:48:48;;;;;;;1.70;1.60;;;30.40;43.90;;;;;;5219066;28;20444;-50
2023/09/20 07:51:24;;;;;;;4.67;1.30;;;30.10;44.80;;;;;;5224168;28;20412;-50
2023/09/20 07:53:55;;;;;;;1.87;1.77;;;30.20;45.00;;;;;;5223173;28;20465;-50
2023/09/20 07:56:26;;;;;;;5.77;1.17;;;30.30;44.90;;;;;;5224382;28;20480;-50
2023/09/20 07:58:57;;;;;;;1.37;1.27;;;29.80;45.10;;;;;;5226269;28;20430;-49
2023/09/20 08:01:29;;;;;;;2.73;1.10;;;28.90;46.40;;;;;;5219423;28;20500;-50
2023/09/20 08:04:00;;;;;;;3.10;1.30;;;28.00;48.40;;;;;;5207939;28;20180;-49
2023/09/20 08:06:36;;;;;;;3.57;1.60;;;27.30;49.70;;;;;;5210156;28;20926;-48
2023/09/20 08:09:07;;;;;;;3.33;1.90;;;26.90;50.60;;;;;;5217045;28;20798;-50
2023/09/20 08:11:38;;;;;;;3.80;1.80;;;26.00;51.80;;;;;;5224515;28;20445;-50
2023/09/20 08:14:08;;;;;;;1.90;1.60;;;25.60;53.10;;;;;;5225855;28;20182;-50
2023/09/20 08:16:42;;;;;;;5.13;1.20;;;25.30;53.90;;;;;;5223782;28;20268;-47
2023/09/20 08:21:47;;;;;;;1.73;1.60;;;25.10;54.70;;;;;;5224198;28;20460;-46
2023/09/20 09:01:01;;;;;;;3.67;1.60;;;23.60;59.20;;;;;;5222432;28;20459;-49
2023/09/20 09:03:33;;;;;;;6.17;2.30;;;23.80;59.20;;;;;;5217934;28;20424;-50
2023/09/20 09:06:04;;;;;;;7.97;1.73;;;24.00;59.30;;;;;;5211607;28;20484;-49
2023/09/20 09:08:35;;;;;;;2.63;1.77;;;24.10;58.80;;;;;;5221266;28;20437;-50
2023/09/20 09:11:06;;;;;;;3.73;1.53;;;24.20;59.00;;;;;;5228567;28;20437;-50
2023/09/20 09:13:37;;;;;;;3.00;1.60;;;24.30;59.10;;;;;;5225217;28;20259;-50
2023/09/20 09:16:07;;;;;;;4.20;2.37;;;24.40;58.90;;;;;;5227325;28;20544;-50
2023/09/20 09:18:39;;;;;;;2.30;1.37;;;24.30;58.60;;;;;;5222684;28;20670;-49
2023/09/20 09:21:12;;;;;;;6.70;1.53;;;24.20;58.70;;;;;;5218529;28;20203;-49
2023/09/20 09:23:46;;;;;;;1.67;1.57;;;24.10;59.20;;;;;;5225307;28;20441;-49
2023/09/20 09:26:17;;;;;;;3.37;1.93;;;23.90;59.50;;;;;;5225407;28;20453;-49
2023/09/20 09:28:48;;;;;;;3.50;1.70;;;23.80;60.00;;;;;;5223089;28;20981;-49
2023/09/20 09:31:19;;;;;;;2.30;2.00;;;23.60;60.20;;;;;;5223200;28;20471;-48
2023/09/20 09:33:51;;;;;;;3.40;1.37;;;23.40;60.60;;;;;;5223835;28;20459;-48
2023/09/20 09:36:22;;;;;;;3.60;1.93;;;23.30;61.30;;;;;;5219706;28;20242;-46
2023/09/20 09:39:09;;;;;;;1.70;1.13;;;23.20;61.50;;;;;;5217695;28;20497;-48
2023/09/20 09:41:44;;;;;;;3.37;1.43;;;23.20;61.90;;;;;;5219264;28;20826;-47
2023/09/20 09:44:15;;;;;;;12.83;1.70;;;23.20;61.80;;;;;;5226212;28;20437;-47
2023/09/20 09:46:46;;;;;;;15.27;2.10;;;23.10;62.30;;;;;;5225839;28;20504;-48
2023/09/20 09:49:19;;;;;;;1.87;1.20;;;22.90;62.90;;;;;;5221874;28;20934;-46
2023/09/20 09:51:52;;;;;;;1.93;1.83;;;22.80;63.00;;;;;;5216113;28;20651;-47
2023/09/20 09:54:24;;;;;;;10.50;1.90;;;22.80;63.40;;;;;;5229037;28;20464;-47
2023/09/20 09:56:55;;;;;;;2.20;1.30;;;22.80;63.20;;;;;;5228596;28;20884;-47
2023/09/20 09:59:26;;;;;;;1.50;1.40;;;22.70;63.30;;;;;;5219422;28;20517;-47
2023/09/20 10:01:59;;;;;;;8.03;1.53;;;22.60;63.90;;;;;;5221841;28;20211;-46
2023/09/20 10:04:31;;;;;;;2.80;1.50;;;22.50;64.30;;;;;;5222685;28;20430;-46
2023/09/20 10:07:16;;;;;;;1.30;1.30;;;22.60;64.80;;;;;;5228646;28;20449;-52
2023/09/20 10:09:50;;;;;;;2.80;1.73;;;22.70;64.10;;;;;;5218881;28;20588;-46
2023/09/20 10:12:22;;;;;;;3.07;1.93;;;22.70;65.10;;;;;;5226778;28;20845;-46
2023/09/20 10:14:54;;;;;;;1.80;1.70;;;22.90;64.20;;;;;;5225366;28;20438;-46
2023/09/20 10:17:30;;;;;;;7.07;1.50;;;22.90;64.30;;;;;;5220128;28;20444;-47
2023/09/20 10:20:07;;;;;;;3.07;1.43;;;23.00;64.40;;;;;;5226299;28;20737;-48
2023/09/20 10:22:41;;;;;;;5.80;1.20;;;23.00;63.90;;;;;;5221479;28;20976;-46
2023/09/20 10:25:34;;;;;;;8.57;1.97;;;22.80;63.90;;;;;;5218692;28;20588;-48
2023/09/20 10:28:09;;;;;;;1.40;1.30;;;22.60;64.50;;;;;;5212940;28;20425;-46
2023/09/20 10:31:03;;;;;;;1.33;1.23;;;22.50;64.60;;;;;;5221083;28;20468;-47
2023/09/20 10:33:41;;;;;;;3.80;2.20;;;22.50;65.10;;;;;;5214447;28;20528;-47
2023/09/20 10:36:33;;;;;;;1.93;1.73;;;22.50;65.30;;;;;;5214568;28;20499;-46
2023/09/20 10:39:22;;;;;;;3.70;2.00;;;22.30;65.60;;;;;;5211220;28;20433;-46
2023/09/20 10:41:53;;;;;;;2.63;1.50;;;22.60;66.10;;;;;;5222435;28;20516;-47
2023/09/20 10:44:32;;;;;;;2.83;1.20;;;22.80;65.80;;;;;;5223658;28;20437;-47
2023/09/20 10:47:14;;;;;;;2.30;1.43;;;22.90;64.80;;;;;;5217970;28;20475;-47
2023/09/20 10:49:55;;;;;;;2.67;1.83;;;22.80;64.80;;;;;;5212907;28;20844;-48
2023/09/20 10:52:37;;;;;;;1.40;1.23;;;22.90;65.00;;;;;;5222475;28;20520;-49
2023/09/20 10:55:18;;;;;;;4.73;2.00;;;22.90;65.40;;;;;;5228441;28;20457;-49
2023/09/20 10:57:50;;;;;;;3.30;1.70;;;23.10;65.40;;;;;;5228559;28;20421;-46
2023/09/20 11:00:30;;;;;;;2.80;2.03;;;23.00;64.60;;;;;;5224546;28;20441;-49
2023/09/20 11:03:08;;;;;;;10.00;3.57;;;22.90;65.60;;;;;;5227596;28;20429;-47
2023/09/20 11:05:39;;;;;;;3.47;2.13;;;22.90;65.40;;;;;;5216669;28;20464;-47
2023/09/20 11:08:13;;;;;;;3.13;1.70;;;22.90;65.80;;;;;;5221603;28;20442;-45
2023/09/20 11:10:45;;;;;;;3.07;2.03;;;22.80;65.90;;;;;;5221761;28;20434;-47
2023/09/20 11:13:19;;;;;;;3.77;3.13;;;22.80;65.90;;;;;;5220770;28;20428;-49
2023/09/20 11:15:59;;;;;;;11.60;3.60;;;23.00;65.40;;;;;;5222318;28;20441;-47
2023/09/20 11:18:34;;;;;;;12.63;4.63;;;23.10;65.60;;;;;;5227721;28;20437;-47
2023/09/20 11:21:05;;;;;;;2.50;1.90;;;23.40;65.20;;;;;;5225227;28;20468;-47
2023/09/20 11:23:37;;;;;;;2.83;1.53;;;23.70;64.90;;;;;;5226075;28;20469;-46
2023/09/20 11:26:08;;;;;;;4.20;1.60;;;23.80;63.90;;;;;;5222266;28;20449;-47
2023/09/20 11:28:40;;;;;;;2.30;1.50;;;23.90;63.60;;;;;;5215200;28;20536;-47
2023/09/20 11:31:27;;;;;;;3.70;1.40;;;23.90;63.50;;;;;;5215094;28;20195;-45
2023/09/20 11:34:05;;;;;;;9.00;1.90;;;23.90;63.50;;;;;;5226845;28;20429;-46
2023/09/20 11:36:38;;;;;;;4.73;1.80;;;23.80;64.00;;;;;;5224870;28;20546;-48
2023/09/20 11:39:09;;;;;;;9.43;1.80;;;23.90;63.60;;;;;;5222210;28;20433;-46
2023/09/20 11:41:43;;;;;;;1.93;1.30;;;24.00;63.50;;;;;;5218341;28;20981;-48
2023/09/20 11:44:17;;;;;;;4.63;1.87;;;23.90;63.70;;;;;;5216310;28;20184;-45
2023/09/20 11:46:57;;;;;;;3.20;1.27;;;23.80;64.10;;;;;;5216218;28;20472;-45
2023/09/20 11:49:29;;;;;;;1.70;1.60;;;23.80;64.40;;;;;;5216960;28;20508;-45
2023/09/20 11:52:01;;;;;;;5.23;2.50;;;23.90;64.20;;;;;;5220935;28;20430;-47
2023/09/20 11:54:34;;;;;;;2.63;2.00;;;24.10;63.80;;;;;;5220645;28;20484;-47
2023/09/20 11:57:06;;;;;;;2.33;1.77;;;24.20;63.70;;;;;;5224889;28;20476;-46
2023/09/20 11:59:43;;;;;;;2.20;1.40;;;24.30;63.30;;;;;;5218337;28;20946;-49
2023/09/20 12:02:14;;;;;;;7.83;2.37;;;24.50;63.20;;;;;;5218170;28;20468;-46
2023/09/20 12:04:45;;;;;;;3.67;1.13;;;24.50;63.30;;;;;;5223008;28;20434;-47
2023/09/20 12:07:16;;;;;;;1.50;1.40;;;24.60;63.10;;;;;;5216764;28;20700;-46
2023/09/20 12:09:47;;;;;;;7.23;2.40;;;24.70;62.90;;;;;;5222488;28;20190;-47
2023/09/20 12:12:18;;;;;;;4.50;1.60;;;24.70;62.70;;;;;;5220249;28;20437;-47
2023/09/20 12:14:48;;;;;;;2.87;1.30;;;24.40;62.70;;;;;;5220357;28;20187;-46
2023/09/20 12:17:19;;;;;;;1.80;1.17;;;24.40;63.50;;;;;;5208476;28;20290;-48
2023/09/20 12:19:50;;;;;;;14.00;2.20;;;24.40;63.30;;;;;;5221506;28;20187;-45
2023/09/20 12:22:20;;;;;;;3.10;1.67;;;24.30;63.00;;;;;;5220217;28;20277;-48
2023/09/20 12:24:53;;;;;;;3.27;1.97;;;24.20;63.30;;;;;;5226233;28;20194;-47
2023/09/20 12:27:24;;;;;;;2.70;1.57;;;24.10;63.70;;;;;;5208749;28;20179;-48
2023/09/20 12:29:55;;;;;;;1.77;1.30;;;24.10;63.80;;;;;;5215006;28;20473;-48
2023/09/20 12:32:25;;;;;;;4.60;2.10;;;24.30;63.30;;;;;;5219062;28;20200;-49
2023/09/20 12:34:57;;;;;;;2.10;1.30;;;24.20;63.60;;;;;;5211818;28;20172;-47
2023/09/20 12:37:27;;;;;;;5.03;2.00;;;24.20;63.20;;;;;;5221833;28;20175;-47
2023/09/20 12:39:58;;;;;;;9.70;2.13;;;24.20;62.90;;;;;;5226614;28;20433;-47
2023/09/20 12:42:29;;;;;;;1.50;1.43;;;24.20;62.50;;;;;;5229390;28;20221;-48
2023/09/20 12:45:04;;;;;;;2.63;1.27;;;24.30;62.40;;;;;;5230775;28;20757;-48
2023/09/20 12:47:36;;;;;;;3.83;2.30;;;24.30;61.70;;;;;;5227705;28;20185;-47
2023/09/20 12:50:08;;;;;;;3.23;1.50;;;24.50;61.10;;;;;;5226151;28;21005;-46
2023/09/20 12:52:46;;;;;;;6.23;2.60;;;24.50;60.90;;;;;;5222149;28;20539;-49
2023/09/20 12:55:17;;;;;;;6.07;1.60;;;24.50;61.10;;;;;;5229078;28;20848;-47
2023/09/20 12:57:48;;;;;;;2.13;1.90;;;24.70;61.60;;;;;;5219182;28;20436;-47
2023/09/20 13:00:19;;;;;;;3.13;2.73;;;24.80;61.30;;;;;;5230429;28;20901;-48
2023/09/20 13:02:49;;;;;;;2.37;2.27;;;25.00;61.00;;;;;;5228046;28;20230;-48
2023/09/20 13:05:22;;;;;;;1.37;1.30;;;25.20;60.60;;;;;;5220121;28;20879;-47
2023/09/20 13:07:56;;;;;;;2.07;1.80;;;25.30;60.20;;;;;;5228158;28;20179;-46
2023/09/20 13:10:27;;;;;;;3.80;1.50;;;25.40;60.10;;;;;;5225961;28;20974;-50
2023/09/20 13:12:58;;;;;;;7.73;1.70;;;25.40;60.50;;;;;;5229694;28;20426;-50
2023/09/20 13:15:30;;;;;;;6.03;1.70;;;25.20;60.40;;;;;;5228375;28;20468;-47
2023/09/20 13:18:02;;;;;;;3.73;1.43;;;25.00;61.10;;;;;;5221645;28;20194;-47
2023/09/20 13:20:34;;;;;;;3.20;1.20;;;25.00;60.90;;;;;;5222455;28;20448;-46
2023/09/20 13:23:05;;;;;;;1.40;1.23;;;24.90;60.60;;;;;;5228734;28;20442;-47
2023/09/20 13:25:39;;;;;;;3.93;2.60;;;24.50;60.40;;;;;;5230774;28;20773;-46
2023/09/20 13:28:13;;;;;;;3.90;1.60;;;24.30;60.90;;;;;;5216403;28;20274;-47
2023/09/20 13:30:44;;;;;;;2.80;1.60;;;24.10;61.20;;;;;;5223715;28;20440;-45
2023/09/20 13:33:16;;;;;;;5.63;1.50;;;24.10;61.40;;;;;;5225807;28;21040;-48
2023/09/20 13:35:47;;;;;;;8.43;2.00;;;24.00;61.10;;;;;;5227343;28;20539;-47
2023/09/20 13:38:18;;;;;;;8.70;1.83;;;24.10;61.20;;;;;;5228346;28;20977;-47
2023/09/20 13:40:49;;;;;;;4.00;1.97;;;24.10;61.40;;;;;;5210872;28;20231;-48
2023/09/20 13:43:20;;;;;;;4.10;2.63;;;24.30;61.70;;;;;;5224080;28;20171;-47
2023/09/20 13:45:52;;;;;;;2.07;1.63;;;24.50;61.50;;;;;;5217395;28;20200;-47
2023/09/20 13:48:23;;;;;;;2.63;1.30;;;24.70;61.50;;;;;;5227833;28;20898;-49
2023/09/20 13:50:54;;;;;;;2.50;1.57;;;24.70;61.00;;;;;;5222027;28;20529;-47